Terminal Aerodrome Forecast
Issued by NWS

Home | Current Version | Previous Version | Graphics & Text | Print | Product List | Glossary On
Versions: 1 2 3 4 5 6 7 8 9 10 11 12 13 14 15 16 17 18
000
FTUS43 KTOP 212222 AAB
TAFFOE
TAF AMD
KFOE 212222Z 2122/2218 27017G25KT P6SM VCTS BKN035CB
      TEMPO 2122/2124 1SM TSRA OVC020CB
     FM220000 30012KT 5SM SHRA OVC035
     FM220200 33008KT P6SM VCSH OVC060
     FM220500 33007KT P6SM BKN150=

USA.gov is the U.S. government's official web portal to all federal, state and local government web resources and services.